Daniels, Utah
Current Conditions -  °F | °C
As of 8:35 PM on Friday 26 Dec 2014 (Local Time) from K36U Reporting Station
Scattered Clouds Scattered Clouds  
Wind Chill: 10°   Ceiling: Unl
Heat Index: 10°   Visibility: 10mi
Dew Point:   Wind: 0mph
Humidity: 92%   Direction: NA
Pressure: 30.11"   Gusts: NA
Location:  40.2386°N, 111.149°W
Report Text: K36U 270335Z AUTO 00000KT 10SM SCT065 M12/M13 A3011 RMK AO2
Loading
Personal Weather Stations






























Interactive Weather Map New forecast layout! Learn more

10-Day Weather Forecast

Advertisements
Track Severe Weather on mobile